Terminal Aerodrome Forecast
Issued by NWS

Home | Current Version | Previous Version | Text Only | Print | Product List | Glossary On
Versions: 1 2 3 4 5 6 7 8 9 10 11 12 13 14 15 16 17 18 19 20 21 22
000
FTUS41 KGYX 232300
TAFRKD
TAF
KRKD 232324Z 2400/2424 32007KT P6SM -RA BKN035 OVC050
     FM240800 32012G18KT P6SM BKN050 OVC080
     FM241200 32015G25KT P6SM SCT050 BKN090
     FM241600 33020G35KT P6SM SCT050 BKN100
      AMD LTD TO CLD VIS AND WIND=

USA.gov is the U.S. government's official web portal to all federal, state and local government web resources and services.